sensor_id;sensor_type;location;lat;lon;timestamp;pressure;altitude;pressure_sealevel;temperature;humidity
21803;BME280;18591;47.080;22.214;2022-12-16T00:00:50;98806.22;;;9.12;65.01
21803;BME280;18591;47.080;22.214;2022-12-16T00:02:53;98804.63;;;9.08;64.93
21803;BME280;18591;47.080;22.214;2022-12-16T00:04:58;98799.72;;;9.18;64.84
21803;BME280;18591;47.080;22.214;2022-12-16T00:07:00;98805.81;;;9.21;64.59
21803;BME280;18591;47.080;22.214;2022-12-16T00:09:03;98808.44;;;9.23;64.46
21803;BME280;18591;47.080;22.214;2022-12-16T00:11:06;98808.19;;;9.27;64.50
21803;BME280;18591;47.080;22.214;2022-12-16T00:13:09;98799.16;;;9.30;64.40
21803;BME280;18591;47.080;22.214;2022-12-16T00:15:11;98800.31;;;9.24;64.26
21803;BME280;18591;47.080;22.214;2022-12-16T00:17:13;98800.06;;;9.30;64.34
21803;BME280;18591;47.080;22.214;2022-12-16T00:19:15;98796.06;;;9.39;64.17
21803;BME280;18591;47.080;22.214;2022-12-16T00:21:18;98797.88;;;9.38;64.15
21803;BME280;18591;47.080;22.214;2022-12-16T00:23:24;98798.41;;;9.47;63.66
21803;BME280;18591;47.080;22.214;2022-12-16T00:25:26;98792.91;;;9.50;63.50
21803;BME280;18591;47.080;22.214;2022-12-16T00:27:30;98793.56;;;9.55;63.53
21803;BME280;18591;47.080;22.214;2022-12-16T00:29:32;98804.13;;;9.58;63.43
21803;BME280;18591;47.080;22.214;2022-12-16T00:31:34;98797.19;;;9.54;63.23
21803;BME280;18591;47.080;22.214;2022-12-16T00:33:36;98804.03;;;9.61;63.38
21803;BME280;18591;47.080;22.214;2022-12-16T00:35:39;98799.22;;;9.68;62.80
21803;BME280;18591;47.080;22.214;2022-12-16T00:37:46;98798.97;;;9.74;63.11
21803;BME280;18591;47.080;22.214;2022-12-16T00:39:48;98790.25;;;9.69;62.85
21803;BME280;18591;47.080;22.214;2022-12-16T00:41:51;98796.34;;;9.72;62.58
21803;BME280;18591;47.080;22.214;2022-12-16T00:43:53;98788.88;;;9.79;62.81
21803;BME280;18591;47.080;22.214;2022-12-16T00:45:55;98781.84;;;9.76;63.08
21803;BME280;18591;47.080;22.214;2022-12-16T00:47:57;98782.50;;;9.81;62.89
21803;BME280;18591;47.080;22.214;2022-12-16T00:49:59;98784.28;;;9.81;62.73
21803;BME280;18591;47.080;22.214;2022-12-16T00:52:02;98770.03;;;9.80;63.32
21803;BME280;18591;47.080;22.214;2022-12-16T00:54:04;98769.81;;;9.85;63.04
21803;BME280;18591;47.080;22.214;2022-12-16T00:56:08;98756.56;;;9.82;62.92
21803;BME280;18591;47.080;22.214;2022-12-16T00:58:12;98743.78;;;9.87;63.28
21803;BME280;18591;47.080;22.214;2022-12-16T01:00:15;98756.75;;;9.96;62.93
21803;BME280;18591;47.080;22.214;2022-12-16T01:02:18;98755.00;;;9.95;63.33
21803;BME280;18591;47.080;22.214;2022-12-16T01:04:20;98764.56;;;10.01;63.04
21803;BME280;18591;47.080;22.214;2022-12-16T01:06:22;98762.53;;;10.06;63.04
21803;BME280;18591;47.080;22.214;2022-12-16T01:08:25;98759.94;;;10.05;63.13
21803;BME280;18591;47.080;22.214;2022-12-16T01:10:27;98768.88;;;10.05;63.22
21803;BME280;18591;47.080;22.214;2022-12-16T01:12:29;98758.94;;;10.07;63.47
21803;BME280;18591;47.080;22.214;2022-12-16T01:14:31;98757.16;;;10.06;63.37
21803;BME280;18591;47.080;22.214;2022-12-16T01:16:34;98765.81;;;10.13;63.37
21803;BME280;18591;47.080;22.214;2022-12-16T01:18:36;98767.63;;;10.12;63.75
21803;BME280;18591;47.080;22.214;2022-12-16T01:20:39;98772.34;;;10.07;64.60
21803;BME280;18591;47.080;22.214;2022-12-16T01:22:41;98770.97;;;9.98;64.39
21803;BME280;18591;47.080;22.214;2022-12-16T01:24:46;98770.69;;;10.05;64.54
21803;BME280;18591;47.080;22.214;2022-12-16T01:26:48;98768.00;;;10.05;64.19
21803;BME280;18591;47.080;22.214;2022-12-16T01:28:51;98758.50;;;9.97;64.27
21803;BME280;18591;47.080;22.214;2022-12-16T01:30:57;98752.91;;;10.02;64.44
21803;BME280;18591;47.080;22.214;2022-12-16T01:33:02;98751.16;;;10.01;64.12
21803;BME280;18591;47.080;22.214;2022-12-16T01:35:05;98742.19;;;10.02;64.20
21803;BME280;18591;47.080;22.214;2022-12-16T01:37:24;98744.28;;;9.95;64.18
21803;BME280;18591;47.080;22.214;2022-12-16T01:39:26;98735.53;;;9.92;64.35
21803;BME280;18591;47.080;22.214;2022-12-16T01:41:31;98720.56;;;9.86;64.72
21803;BME280;18591;47.080;22.214;2022-12-16T01:43:35;98719.06;;;9.80;65.07
21803;BME280;18591;47.080;22.214;2022-12-16T01:45:38;98709.72;;;9.70;65.33
21803;BME280;18591;47.080;22.214;2022-12-16T01:47:40;98706.47;;;9.64;66.47
21803;BME280;18591;47.080;22.214;2022-12-16T01:49:46;98701.66;;;9.70;66.70
21803;BME280;18591;47.080;22.214;2022-12-16T01:51:52;98718.78;;;9.68;66.48
21803;BME280;18591;47.080;22.214;2022-12-16T01:54:05;98714.22;;;9.70;67.51
21803;BME280;18591;47.080;22.214;2022-12-16T01:56:09;98711.16;;;9.77;66.93
21803;BME280;18591;47.080;22.214;2022-12-16T01:58:23;98710.84;;;9.84;67.41
21803;BME280;18591;47.080;22.214;2022-12-16T02:00:27;98715.94;;;9.90;67.17
21803;BME280;18591;47.080;22.214;2022-12-16T02:02:30;98719.34;;;9.93;67.13
21803;BME280;18591;47.080;22.214;2022-12-16T02:04:35;98719.06;;;9.99;67.17
21803;BME280;18591;47.080;22.214;2022-12-16T02:06:59;98733.47;;;9.97;67.70
21803;BME280;18591;47.080;22.214;2022-12-16T02:09:05;98735.69;;;10.06;66.98
21803;BME280;18591;47.080;22.214;2022-12-16T02:27:44;98706.66;;;9.97;67.55
21803;BME280;18591;47.080;22.214;2022-12-16T02:32:43;98698.50;;;9.98;67.24
21803;BME280;18591;47.080;22.214;2022-12-16T02:37:19;98687.13;;;9.93;67.82
21803;BME280;18591;47.080;22.214;2022-12-16T02:44:42;98645.72;;;9.99;68.75
21803;BME280;18591;47.080;22.214;2022-12-16T02:46:54;98661.03;;;9.97;68.55
21803;BME280;18591;47.080;22.214;2022-12-16T02:49:06;98654.72;;;9.98;68.12
21803;BME280;18591;47.080;22.214;2022-12-16T02:51:09;98660.66;;;10.05;68.29
21803;BME280;18591;47.080;22.214;2022-12-16T02:53:11;98656.69;;;9.94;68.59
21803;BME280;18591;47.080;22.214;2022-12-16T02:55:14;98647.47;;;10.00;67.70
21803;BME280;18591;47.080;22.214;2022-12-16T03:00:06;98634.69;;;10.05;68.15
21803;BME280;18591;47.080;22.214;2022-12-16T03:05:12;98640.28;;;10.00;69.08
21803;BME280;18591;47.080;22.214;2022-12-16T03:07:17;98633.72;;;10.06;68.86
21803;BME280;18591;47.080;22.214;2022-12-16T03:09:27;98639.91;;;10.08;69.11
21803;BME280;18591;47.080;22.214;2022-12-16T03:11:31;98644.06;;;10.14;68.97
21803;BME280;18591;47.080;22.214;2022-12-16T03:13:49;98639.44;;;10.17;69.38
21803;BME280;18591;47.080;22.214;2022-12-16T03:15:53;98649.28;;;10.17;68.68
21803;BME280;18591;47.080;22.214;2022-12-16T03:17:58;98636.19;;;10.11;69.27
21803;BME280;18591;47.080;22.214;2022-12-16T03:20:26;98631.78;;;10.10;69.74
21803;BME280;18591;47.080;22.214;2022-12-16T03:22:33;98638.00;;;10.10;69.76
21803;BME280;18591;47.080;22.214;2022-12-16T03:24:39;98637.63;;;10.18;69.45
21803;BME280;18591;47.080;22.214;2022-12-16T03:29:02;98652.25;;;10.30;69.38
21803;BME280;18591;47.080;22.214;2022-12-16T03:33:27;98635.09;;;10.32;69.61
21803;BME280;18591;47.080;22.214;2022-12-16T03:35:44;98642.63;;;10.43;69.30
21803;BME280;18591;47.080;22.214;2022-12-16T03:37:53;98616.66;;;10.43;69.21
21803;BME280;18591;47.080;22.214;2022-12-16T03:40:00;98609.38;;;10.45;69.44
21803;BME280;18591;47.080;22.214;2022-12-16T03:42:05;98607.16;;;10.54;69.31
21803;BME280;18591;47.080;22.214;2022-12-16T03:44:08;98606.13;;;10.56;68.84
21803;BME280;18591;47.080;22.214;2022-12-16T03:46:10;98608.34;;;10.48;69.64
21803;BME280;18591;47.080;22.214;2022-12-16T03:48:13;98608.19;;;10.51;69.14
21803;BME280;18591;47.080;22.214;2022-12-16T03:50:20;98601.06;;;10.50;69.27
21803;BME280;18591;47.080;22.214;2022-12-16T03:52:24;98594.31;;;10.43;69.79
21803;BME280;18591;47.080;22.214;2022-12-16T03:54:26;98593.09;;;10.49;69.48
21803;BME280;18591;47.080;22.214;2022-12-16T03:56:28;98601.00;;;10.52;70.06
21803;BME280;18591;47.080;22.214;2022-12-16T03:58:30;98608.88;;;10.55;69.73
21803;BME280;18591;47.080;22.214;2022-12-16T04:00:32;98602.56;;;10.56;69.77
21803;BME280;18591;47.080;22.214;2022-12-16T04:02:34;98595.38;;;10.56;69.26
21803;BME280;18591;47.080;22.214;2022-12-16T04:04:37;98598.75;;;10.60;68.99
21803;BME280;18591;47.080;22.214;2022-12-16T04:06:39;98581.69;;;10.61;68.94
21803;BME280;18591;47.080;22.214;2022-12-16T04:08:42;98581.56;;;10.64;69.65
21803;BME280;18591;47.080;22.214;2022-12-16T04:10:44;98581.69;;;10.61;69.80
21803;BME280;18591;47.080;22.214;2022-12-16T04:13:05;98585.09;;;10.64;69.68
21803;BME280;18591;47.080;22.214;2022-12-16T04:15:26;98586.81;;;10.65;69.38
21803;BME280;18591;47.080;22.214;2022-12-16T04:17:47;98579.09;;;10.59;69.19
21803;BME280;18591;47.080;22.214;2022-12-16T04:20:14;98564.34;;;10.51;69.91
21803;BME280;18591;47.080;22.214;2022-12-16T04:22:38;98559.50;;;10.57;69.48
21803;BME280;18591;47.080;22.214;2022-12-16T04:25:06;98556.03;;;10.55;69.86
21803;BME280;18591;47.080;22.214;2022-12-16T04:27:08;98549.63;;;10.58;69.93
21803;BME280;18591;47.080;22.214;2022-12-16T04:29:25;98543.16;;;10.62;70.23
21803;BME280;18591;47.080;22.214;2022-12-16T04:31:28;98540.28;;;10.65;69.95
21803;BME280;18591;47.080;22.214;2022-12-16T04:33:30;98537.88;;;10.76;69.30
21803;BME280;18591;47.080;22.214;2022-12-16T04:35:51;98540.66;;;10.75;70.10
21803;BME280;18591;47.080;22.214;2022-12-16T04:38:12;98524.44;;;10.76;69.65
21803;BME280;18591;47.080;22.214;2022-12-16T04:40:33;98512.84;;;10.76;70.23
21803;BME280;18591;47.080;22.214;2022-12-16T04:42:56;98511.13;;;10.75;69.83
21803;BME280;18591;47.080;22.214;2022-12-16T04:45:16;98521.75;;;10.76;69.93
21803;BME280;18591;47.080;22.214;2022-12-16T04:47:37;98521.50;;;10.81;69.66
21803;BME280;18591;47.080;22.214;2022-12-16T04:49:58;98521.63;;;10.79;69.31
21803;BME280;18591;47.080;22.214;2022-12-16T04:52:19;98512.84;;;10.76;69.69
21803;BME280;18591;47.080;22.214;2022-12-16T04:54:40;98512.78;;;10.77;69.62
21803;BME280;18591;47.080;22.214;2022-12-16T04:57:01;98522.66;;;10.77;69.23
21803;BME280;18591;47.080;22.214;2022-12-16T04:59:25;98523.06;;;10.69;69.85
21803;BME280;18591;47.080;22.214;2022-12-16T05:01:49;98525.84;;;10.67;69.83
21803;BME280;18591;47.080;22.214;2022-12-16T05:04:13;98525.84;;;10.67;69.96
21803;BME280;18591;47.080;22.214;2022-12-16T05:06:33;98526.53;;;10.71;69.60
21803;BME280;18591;47.080;22.214;2022-12-16T05:08:54;98519.06;;;10.76;69.50
21803;BME280;18591;47.080;22.214;2022-12-16T05:11:15;98513.63;;;10.78;69.23
21803;BME280;18591;47.080;22.214;2022-12-16T05:13:35;98485.72;;;10.80;68.67
21803;BME280;18591;47.080;22.214;2022-12-16T05:15:56;98473.34;;;10.78;68.79
21803;BME280;18591;47.080;22.214;2022-12-16T05:18:17;98471.88;;;10.72;69.20
21803;BME280;18591;47.080;22.214;2022-12-16T05:20:38;98480.84;;;10.71;69.25
21803;BME280;18591;47.080;22.214;2022-12-16T05:22:58;98473.59;;;10.73;69.72
21803;BME280;18591;47.080;22.214;2022-12-16T05:25:19;98475.16;;;10.77;69.04
21803;BME280;18591;47.080;22.214;2022-12-16T05:27:41;98463.28;;;10.81;69.28
21803;BME280;18591;47.080;22.214;2022-12-16T05:30:02;98455.06;;;10.84;68.76
21803;BME280;18591;47.080;22.214;2022-12-16T05:32:22;98448.78;;;10.84;68.69
21803;BME280;18591;47.080;22.214;2022-12-16T05:34:43;98463.38;;;10.80;68.81
21803;BME280;18591;47.080;22.214;2022-12-16T05:37:04;98469.78;;;10.77;68.69
21803;BME280;18591;47.080;22.214;2022-12-16T05:39:24;98466.25;;;10.77;68.72
21803;BME280;18591;47.080;22.214;2022-12-16T05:41:58;98459.81;;;10.79;68.29
21803;BME280;18591;47.080;22.214;2022-12-16T05:44:19;98457.03;;;10.81;68.15
21803;BME280;18591;47.080;22.214;2022-12-16T05:46:39;98449.09;;;10.79;68.24
21803;BME280;18591;47.080;22.214;2022-12-16T05:49:00;98443.72;;;10.79;68.29
21803;BME280;18591;47.080;22.214;2022-12-16T05:51:23;98448.91;;;10.82;68.07
21803;BME280;18591;47.080;22.214;2022-12-16T05:53:44;98447.25;;;10.80;68.51
21803;BME280;18591;47.080;22.214;2022-12-16T05:56:05;98455.06;;;10.84;68.19
21803;BME280;18591;47.080;22.214;2022-12-16T05:58:27;98462.16;;;10.85;68.00
21803;BME280;18591;47.080;22.214;2022-12-16T06:00:47;98448.91;;;10.82;68.25
21803;BME280;18591;47.080;22.214;2022-12-16T06:03:08;98448.03;;;10.82;68.15
21803;BME280;18591;47.080;22.214;2022-12-16T06:05:28;98451.22;;;10.88;67.94
21803;BME280;18591;47.080;22.214;2022-12-16T06:07:54;98445.59;;;10.93;67.98
21803;BME280;18591;47.080;22.214;2022-12-16T06:10:15;98451.66;;;10.97;68.20
21803;BME280;18591;47.080;22.214;2022-12-16T06:12:35;98461.28;;;11.01;67.90
21803;BME280;18591;47.080;22.214;2022-12-16T06:14:56;98462.16;;;11.01;68.03
21803;BME280;18591;47.080;22.214;2022-12-16T06:17:34;98458.53;;;11.02;68.01
21803;BME280;18591;47.080;22.214;2022-12-16T06:19:54;98466.59;;;11.02;68.23
21803;BME280;18591;47.080;22.214;2022-12-16T06:22:15;98463.72;;;11.05;67.97
21803;BME280;18591;47.080;22.214;2022-12-16T06:24:35;98473.44;;;11.08;68.28
21803;BME280;18591;47.080;22.214;2022-12-16T06:26:59;98475.16;;;11.09;68.33
21803;BME280;18591;47.080;22.214;2022-12-16T06:29:20;98478.19;;;11.03;68.23
21803;BME280;18591;47.080;22.214;2022-12-16T06:31:41;98475.41;;;11.04;68.47
21803;BME280;18591;47.080;22.214;2022-12-16T06:34:02;98478.53;;;10.97;69.20
21803;BME280;18591;47.080;22.214;2022-12-16T06:36:23;98475.59;;;11.01;69.11
21803;BME280;18591;47.080;22.214;2022-12-16T06:38:46;98475.84;;;10.97;69.61
21803;BME280;18591;47.080;22.214;2022-12-16T06:41:07;98475.16;;;10.93;69.54
21803;BME280;18591;47.080;22.214;2022-12-16T06:43:27;98496.47;;;10.96;69.66
21803;BME280;18591;47.080;22.214;2022-12-16T06:45:48;98498.56;;;10.91;70.28
21803;BME280;18591;47.080;22.214;2022-12-16T06:48:09;98498.31;;;10.96;70.18
21803;BME280;18591;47.080;22.214;2022-12-16T06:50:29;98512.09;;;10.89;69.91
21803;BME280;18591;47.080;22.214;2022-12-16T06:52:56;98507.66;;;10.88;70.24
21803;BME280;18591;47.080;22.214;2022-12-16T06:55:16;98508.88;;;10.83;70.83
21803;BME280;18591;47.080;22.214;2022-12-16T06:57:37;98509.31;;;10.91;70.71
21803;BME280;18591;47.080;22.214;2022-12-16T06:59:58;98511.56;;;10.99;70.85
21803;BME280;18591;47.080;22.214;2022-12-16T07:02:19;98491.09;;;10.96;70.60
21803;BME280;18591;47.080;22.214;2022-12-16T07:04:40;98492.56;;;11.02;70.57
21803;BME280;18591;47.080;22.214;2022-12-16T07:07:00;98500.31;;;11.08;70.52
21803;BME280;18591;47.080;22.214;2022-12-16T07:09:24;98509.84;;;11.14;71.27
21803;BME280;18591;47.080;22.214;2022-12-16T07:11:45;98513.97;;;11.19;70.82
21803;BME280;18591;47.080;22.214;2022-12-16T07:14:06;98514.16;;;11.16;70.76
21803;BME280;18591;47.080;22.214;2022-12-16T07:16:28;98521.00;;;11.06;71.22
21803;BME280;18591;47.080;22.214;2022-12-16T07:18:49;98529.63;;;11.13;71.52
21803;BME280;18591;47.080;22.214;2022-12-16T07:21:10;98535.41;;;11.21;71.16
21803;BME280;18591;47.080;22.214;2022-12-16T07:23:31;98531.69;;;11.23;71.13
21803;BME280;18591;47.080;22.214;2022-12-16T07:25:53;98538.91;;;11.23;71.01
21803;BME280;18591;47.080;22.214;2022-12-16T07:28:14;98522.84;;;11.21;71.29
21803;BME280;18591;47.080;22.214;2022-12-16T07:30:35;98529.31;;;11.17;71.59
21803;BME280;18591;47.080;22.214;2022-12-16T07:32:56;98543.91;;;11.13;71.81
21803;BME280;18591;47.080;22.214;2022-12-16T07:35:16;98560.53;;;11.20;71.06
21803;BME280;18591;47.080;22.214;2022-12-16T07:37:38;98580.09;;;11.23;70.93
21803;BME280;18591;47.080;22.214;2022-12-16T07:39:59;98589.88;;;11.24;70.76
21803;BME280;18591;47.080;22.214;2022-12-16T07:42:20;98585.28;;;11.26;70.69
21803;BME280;18591;47.080;22.214;2022-12-16T07:44:40;98591.88;;;11.21;70.89
21803;BME280;18591;47.080;22.214;2022-12-16T07:47:01;98596.22;;;11.23;71.28
21803;BME280;18591;47.080;22.214;2022-12-16T07:49:22;98596.38;;;11.20;71.30
21803;BME280;18591;47.080;22.214;2022-12-16T07:51:43;98606.97;;;11.23;71.06
21803;BME280;18591;47.080;22.214;2022-12-16T07:54:03;98628.19;;;11.12;71.80
21803;BME280;18591;47.080;22.214;2022-12-16T07:56:24;98614.50;;;11.17;71.66
21803;BME280;18591;47.080;22.214;2022-12-16T07:58:45;98615.53;;;11.14;71.99
21803;BME280;18591;47.080;22.214;2022-12-16T08:01:09;98619.69;;;11.20;71.54
21803;BME280;18591;47.080;22.214;2022-12-16T08:03:30;98642.22;;;11.17;71.85
21803;BME280;18591;47.080;22.214;2022-12-16T08:05:50;98640.94;;;11.24;71.12
21803;BME280;18591;47.080;22.214;2022-12-16T08:08:12;98629.41;;;11.22;71.13
21803;BME280;18591;47.080;22.214;2022-12-16T08:10:32;98632.28;;;11.19;71.35
21803;BME280;18591;47.080;22.214;2022-12-16T08:13:03;98643.38;;;11.13;71.66
21803;BME280;18591;47.080;22.214;2022-12-16T08:15:27;98638.69;;;11.17;71.24
21803;BME280;18591;47.080;22.214;2022-12-16T08:17:49;98653.94;;;11.16;71.39
21803;BME280;18591;47.080;22.214;2022-12-16T08:20:10;98648.56;;;11.16;71.22
21803;BME280;18591;47.080;22.214;2022-12-16T08:22:30;98647.59;;;11.17;71.23
21803;BME280;18591;47.080;22.214;2022-12-16T08:24:51;98645.03;;;11.16;71.14
21803;BME280;18591;47.080;22.214;2022-12-16T08:27:12;98637.75;;;11.18;71.21
21803;BME280;18591;47.080;22.214;2022-12-16T08:29:33;98624.31;;;11.18;71.12
21803;BME280;18591;47.080;22.214;2022-12-16T08:31:55;98627.84;;;11.18;71.04
21803;BME280;18591;47.080;22.214;2022-12-16T08:34:16;98613.69;;;11.15;71.64
21803;BME280;18591;47.080;22.214;2022-12-16T08:36:40;98622.81;;;11.12;71.85
21803;BME280;18591;47.080;22.214;2022-12-16T08:39:00;98620.13;;;11.12;72.11
21803;BME280;18591;47.080;22.214;2022-12-16T08:41:21;98607.28;;;11.17;72.20
21803;BME280;18591;47.080;22.214;2022-12-16T08:43:42;98605.06;;;11.25;71.95
21803;BME280;18591;47.080;22.214;2022-12-16T08:46:03;98611.81;;;11.32;72.01
21803;BME280;18591;47.080;22.214;2022-12-16T08:48:24;98606.00;;;11.40;72.76
21803;BME280;18591;47.080;22.214;2022-12-16T08:50:45;98593.09;;;11.47;72.61
21803;BME280;18591;47.080;22.214;2022-12-16T08:53:06;98599.75;;;11.55;72.80
21803;BME280;18591;47.080;22.214;2022-12-16T08:55:26;98599.25;;;11.65;73.04
21803;BME280;18591;47.080;22.214;2022-12-16T08:57:54;98602.53;;;11.70;73.92
21803;BME280;18591;47.080;22.214;2022-12-16T09:00:15;98606.44;;;11.80;73.62
21803;BME280;18591;47.080;22.214;2022-12-16T09:02:57;98586.31;;;11.87;74.29
21803;BME280;18591;47.080;22.214;2022-12-16T09:05:18;98591.91;;;11.98;73.60
21803;BME280;18591;47.080;22.214;2022-12-16T09:07:39;98597.03;;;12.03;73.83
21803;BME280;18591;47.080;22.214;2022-12-16T09:10:00;98593.78;;;12.12;73.72
21803;BME280;18591;47.080;22.214;2022-12-16T09:12:21;98595.06;;;12.21;73.99
21803;BME280;18591;47.080;22.214;2022-12-16T09:14:46;98587.47;;;12.28;73.90
21803;BME280;18591;47.080;22.214;2022-12-16T09:17:07;98594.34;;;12.33;74.08
21803;BME280;18591;47.080;22.214;2022-12-16T09:19:27;98593.19;;;12.37;73.88
21803;BME280;18591;47.080;22.214;2022-12-16T09:21:48;98581.94;;;12.45;74.50
21803;BME280;18591;47.080;22.214;2022-12-16T09:24:23;98595.06;;;12.51;74.13
21803;BME280;18591;47.080;22.214;2022-12-16T09:26:44;98600.25;;;12.54;74.10
21803;BME280;18591;47.080;22.214;2022-12-16T09:29:05;98601.88;;;12.57;74.52
21803;BME280;18591;47.080;22.214;2022-12-16T09:31:28;98597.56;;;12.54;74.10
21803;BME280;18591;47.080;22.214;2022-12-16T09:33:48;98593.09;;;12.53;73.91
21803;BME280;18591;47.080;22.214;2022-12-16T09:36:09;98584.66;;;12.59;74.28
21803;BME280;18591;47.080;22.214;2022-12-16T09:38:30;98593.34;;;12.64;74.59
21803;BME280;18591;47.080;22.214;2022-12-16T09:40:51;98604.97;;;12.65;74.46
21803;BME280;18591;47.080;22.214;2022-12-16T09:45:54;98589.69;;;12.80;75.10
21803;BME280;18591;47.080;22.214;2022-12-16T09:51:51;98594.50;;;13.03;75.35
21803;BME280;18591;47.080;22.214;2022-12-16T09:54:22;98593.22;;;13.09;75.56
21803;BME280;18591;47.080;22.214;2022-12-16T09:56:45;98581.88;;;13.18;75.46
21803;BME280;18591;47.080;22.214;2022-12-16T09:59:11;98575.31;;;13.22;75.69
21803;BME280;18591;47.080;22.214;2022-12-16T10:01:37;98568.50;;;13.31;75.54
21803;BME280;18591;47.080;22.214;2022-12-16T10:04:01;98560.47;;;13.44;76.01
21803;BME280;18591;47.080;22.214;2022-12-16T10:06:51;98556.00;;;13.57;75.68
21803;BME280;18591;47.080;22.214;2022-12-16T10:11:57;98564.03;;;13.71;75.24
21803;BME280;18591;47.080;22.214;2022-12-16T10:14:32;98555.75;;;13.75;75.55
21803;BME280;18591;47.080;22.214;2022-12-16T10:21:59;98545.09;;;13.86;75.36
21803;BME280;18591;47.080;22.214;2022-12-16T10:24:37;98550.22;;;14.03;74.94
21803;BME280;18591;47.080;22.214;2022-12-16T10:27:14;98553.34;;;14.10;74.63
21803;BME280;18591;47.080;22.214;2022-12-16T10:29:41;98544.94;;;14.14;74.51
21803;BME280;18591;47.080;22.214;2022-12-16T10:32:15;98555.13;;;14.24;74.54
21803;BME280;18591;47.080;22.214;2022-12-16T10:34:38;98552.75;;;14.32;73.97
21803;BME280;18591;47.080;22.214;2022-12-16T10:36:59;98550.50;;;14.38;73.80
21803;BME280;18591;47.080;22.214;2022-12-16T10:39:31;98550.81;;;14.47;73.66
21803;BME280;18591;47.080;22.214;2022-12-16T10:41:53;98550.31;;;14.54;73.03
21803;BME280;18591;47.080;22.214;2022-12-16T10:46:46;98553.75;;;14.56;72.86
21803;BME280;18591;47.080;22.214;2022-12-16T10:49:12;98538.75;;;14.65;72.42
21803;BME280;18591;47.080;22.214;2022-12-16T10:51:36;98549.00;;;14.73;72.56
21803;BME280;18591;47.080;22.214;2022-12-16T10:54:28;98549.09;;;14.71;72.13
21803;BME280;18591;47.080;22.214;2022-12-16T10:56:54;98546.00;;;14.77;72.34
21803;BME280;18591;47.080;22.214;2022-12-16T10:59:19;98548.25;;;14.84;71.93
21803;BME280;18591;47.080;22.214;2022-12-16T11:01:39;98553.00;;;14.93;72.03
21803;BME280;18591;47.080;22.214;2022-12-16T11:04:00;98553.41;;;14.99;72.25
21803;BME280;18591;47.080;22.214;2022-12-16T11:06:36;98553.94;;;15.05;71.93
21803;BME280;18591;47.080;22.214;2022-12-16T11:09:20;98560.84;;;15.21;71.88
21803;BME280;18591;47.080;22.214;2022-12-16T11:11:41;98557.78;;;15.39;71.80
21803;BME280;18591;47.080;22.214;2022-12-16T11:14:15;98555.38;;;15.47;71.05
21803;BME280;18591;47.080;22.214;2022-12-16T11:16:38;98556.41;;;15.57;70.94
21803;BME280;18591;47.080;22.214;2022-12-16T11:18:58;98554.84;;;15.66;70.36
21803;BME280;18591;47.080;22.214;2022-12-16T11:21:20;98558.53;;;15.78;70.18
21803;BME280;18591;47.080;22.214;2022-12-16T11:23:40;98557.31;;;15.82;69.61
21803;BME280;18591;47.080;22.214;2022-12-16T11:28:26;98552.81;;;15.94;69.02
21803;BME280;18591;47.080;22.214;2022-12-16T11:30:57;98557.50;;;16.03;69.22
21803;BME280;18591;47.080;22.214;2022-12-16T11:33:23;98555.44;;;16.06;68.68
21803;BME280;18591;47.080;22.214;2022-12-16T11:35:51;98550.78;;;16.08;68.44
21803;BME280;18591;47.080;22.214;2022-12-16T11:38:43;98543.16;;;16.14;68.13
21803;BME280;18591;47.080;22.214;2022-12-16T11:41:06;98541.06;;;16.17;68.04
21803;BME280;18591;47.080;22.214;2022-12-16T11:43:29;98533.34;;;16.24;67.83
21803;BME280;18591;47.080;22.214;2022-12-16T11:45:52;98527.78;;;16.25;67.47
21803;BME280;18591;47.080;22.214;2022-12-16T11:48:41;98527.34;;;16.31;66.94
21803;BME280;18591;47.080;22.214;2022-12-16T11:51:04;98530.75;;;16.33;67.84
21803;BME280;18591;47.080;22.214;2022-12-16T11:53:34;98530.50;;;16.25;66.40
21803;BME280;18591;47.080;22.214;2022-12-16T11:55:58;98531.75;;;16.32;67.26
21803;BME280;18591;47.080;22.214;2022-12-16T11:58:41;98528.69;;;16.37;66.60
21803;BME280;18591;47.080;22.214;2022-12-16T12:03:49;98535.13;;;16.47;66.87
21803;BME280;18591;47.080;22.214;2022-12-16T12:08:53;98533.88;;;16.51;65.88
21803;BME280;18591;47.080;22.214;2022-12-16T12:11:35;98532.28;;;16.49;65.42
21803;BME280;18591;47.080;22.214;2022-12-16T12:14:32;98530.06;;;16.54;65.03
21803;BME280;18591;47.080;22.214;2022-12-16T12:17:03;98539.94;;;16.55;65.79
21803;BME280;18591;47.080;22.214;2022-12-16T12:19:38;98528.00;;;16.58;66.34
21803;BME280;18591;47.080;22.214;2022-12-16T12:22:35;98527.13;;;16.57;65.28
21803;BME280;18591;47.080;22.214;2022-12-16T12:31:05;98525.78;;;16.63;64.93
21803;BME280;18591;47.080;22.214;2022-12-16T12:33:57;98537.38;;;16.65;65.15
21803;BME280;18591;47.080;22.214;2022-12-16T12:37:14;98533.06;;;16.73;65.06
21803;BME280;18591;47.080;22.214;2022-12-16T12:39:18;98527.31;;;16.78;64.91
21803;BME280;18591;47.080;22.214;2022-12-16T12:47:10;98531.63;;;16.92;65.01
21803;BME280;18591;47.080;22.214;2022-12-16T12:50:07;98532.63;;;16.91;64.34
21803;BME280;18591;47.080;22.214;2022-12-16T12:55:41;98535.44;;;16.89;63.77
21803;BME280;18591;47.080;22.214;2022-12-16T12:58:04;98539.91;;;16.90;64.29
21803;BME280;18591;47.080;22.214;2022-12-16T13:00:27;98543.59;;;16.89;64.05
21803;BME280;18591;47.080;22.214;2022-12-16T13:05:36;98541.88;;;16.88;63.83
21803;BME280;18591;47.080;22.214;2022-12-16T13:08:31;98540.25;;;16.86;62.96
21803;BME280;18591;47.080;22.214;2022-12-16T13:11:10;98545.69;;;16.86;63.00
21803;BME280;18591;47.080;22.214;2022-12-16T13:13:35;98559.00;;;16.89;63.63
21803;BME280;18591;47.080;22.214;2022-12-16T13:15:56;98553.69;;;16.87;63.50
21803;BME280;18591;47.080;22.214;2022-12-16T13:20:55;98550.25;;;16.85;63.01
21803;BME280;18591;47.080;22.214;2022-12-16T13:23:37;98564.53;;;16.87;63.28
21803;BME280;18591;47.080;22.214;2022-12-16T13:26:03;98569.34;;;16.84;62.55